Accueil
METAR-TAF:

METAR-TAF

Aéroports :

Base aérienne de Kleine-Brogel

Peer, Belgique

latitude: 51-10N, longitude: 005-28E, altitude: 55 m

Observation

Le bulletin a été fait il y a 36 minutes, à 07:55 UTC
Vent 6 kt de nord/nord-est
Température 7°C
Humidité 66%
Pression 1027 hPa
Visibilité 10 km ou plus

METAR: EBBL 170755Z AUTO 02006KT 9999 FEW150/// 07/01 Q1027 BLU

Heure: 10:31 (08:31 UTC)

Prévision

Le bulletin a été fait il y a 16 heures et 50 minutes, à 15:41 UTC
Prévision valable du 16 à 19 UTC au 17 à 07 UTC
Vent 7 kt de nord/nord-est
Visibilité 10 km ou plus
Nuages épars à une hauteur de 5000 ft
Evoluant progressivement
du 17 à 01 UTC au 17 à 03 UTC
Vent 4 kt de nord

TAF: EBBL 161541Z 1619/1707 02007KT 9999 SCT050 BECMG 1701/1703 01004KT

Observations et prévisions météorologiques de plus de 4000 aéroports (messages METAR et TAF).

Les stations disponibles sont représentées par des disques jaunes et rouges sur la carte.

Passer la souris dessus pour voir le nom de la station.

Cliquer dessus pour voir les observations et prévisions météorologiques.

Pour changer de carte: cliquez sur les boutons verts avec une croix noire pour zoomer, sur le bouton vert avec un tiret pour effectuer un zoom arrière, ou sur les flèches vertes pour les cartes adjacentes.


METAR-TAF: